sensor_id;sensor_type;location;lat;lon;timestamp;temperature;humidity
37289;DHT22;23174;49.462;11.000;2024-02-26T00:00:58;9.10;99.90
37289;DHT22;23174;49.462;11.000;2024-02-26T00:02:58;9.20;99.90
37289;DHT22;23174;49.462;11.000;2024-02-26T00:04:59;9.20;99.90
37289;DHT22;23174;49.462;11.000;2024-02-26T00:06:59;9.20;99.90
37289;DHT22;23174;49.462;11.000;2024-02-26T00:09:00;9.20;99.90
37289;DHT22;23174;49.462;11.000;2024-02-26T00:11:01;9.20;99.90
37289;DHT22;23174;49.462;11.000;2024-02-26T00:13:01;9.20;99.90
37289;DHT22;23174;49.462;11.000;2024-02-26T00:15:02;9.20;99.90
37289;DHT22;23174;49.462;11.000;2024-02-26T00:17:02;9.20;99.90
37289;DHT22;23174;49.462;11.000;2024-02-26T00:19:03;9.20;99.90
37289;DHT22;23174;49.462;11.000;2024-02-26T00:21:03;9.10;99.90
37289;DHT22;23174;49.462;11.000;2024-02-26T00:23:04;9.10;99.90
37289;DHT22;23174;49.462;11.000;2024-02-26T00:25:05;9.10;99.90
37289;DHT22;23174;49.462;11.000;2024-02-26T00:27:05;9.00;99.90
37289;DHT22;23174;49.462;11.000;2024-02-26T00:29:06;9.00;99.90
37289;DHT22;23174;49.462;11.000;2024-02-26T00:31:06;8.90;99.90
37289;DHT22;23174;49.462;11.000;2024-02-26T00:33:07;8.90;99.90
37289;DHT22;23174;49.462;11.000;2024-02-26T00:35:07;8.80;99.90
37289;DHT22;23174;49.462;11.000;2024-02-26T00:37:09;8.80;99.90
37289;DHT22;23174;49.462;11.000;2024-02-26T00:39:11;8.80;99.90
37289;DHT22;23174;49.462;11.000;2024-02-26T00:41:12;8.80;99.90
37289;DHT22;23174;49.462;11.000;2024-02-26T00:43:12;8.80;99.90
37289;DHT22;23174;49.462;11.000;2024-02-26T00:45:13;8.80;99.90
37289;DHT22;23174;49.462;11.000;2024-02-26T00:47:14;8.70;99.90
37289;DHT22;23174;49.462;11.000;2024-02-26T00:49:14;8.70;99.90
37289;DHT22;23174;49.462;11.000;2024-02-26T00:51:15;8.70;99.90
37289;DHT22;23174;49.462;11.000;2024-02-26T00:53:15;8.70;99.90
37289;DHT22;23174;49.462;11.000;2024-02-26T00:55:16;8.60;99.90
37289;DHT22;23174;49.462;11.000;2024-02-26T00:57:16;8.60;99.90
37289;DHT22;23174;49.462;11.000;2024-02-26T00:59:17;8.40;99.90
37289;DHT22;23174;49.462;11.000;2024-02-26T01:01:17;8.40;99.90
37289;DHT22;23174;49.462;11.000;2024-02-26T01:03:18;8.40;99.90
37289;DHT22;23174;49.462;11.000;2024-02-26T01:05:19;8.40;99.90
37289;DHT22;23174;49.462;11.000;2024-02-26T01:07:19;8.50;99.90
37289;DHT22;23174;49.462;11.000;2024-02-26T01:09:20;8.40;99.90
37289;DHT22;23174;49.462;11.000;2024-02-26T01:11:20;8.40;99.90
37289;DHT22;23174;49.462;11.000;2024-02-26T01:13:21;8.40;99.90
37289;DHT22;23174;49.462;11.000;2024-02-26T01:15:21;8.40;99.90
37289;DHT22;23174;49.462;11.000;2024-02-26T01:17:24;8.30;99.90
37289;DHT22;23174;49.462;11.000;2024-02-26T01:19:24;8.30;99.90
37289;DHT22;23174;49.462;11.000;2024-02-26T01:21:24;8.40;99.90
37289;DHT22;23174;49.462;11.000;2024-02-26T01:23:25;8.40;99.90
37289;DHT22;23174;49.462;11.000;2024-02-26T01:25:25;8.40;99.90
37289;DHT22;23174;49.462;11.000;2024-02-26T01:27:26;8.30;99.90
37289;DHT22;23174;49.462;11.000;2024-02-26T01:29:27;8.40;99.90
37289;DHT22;23174;49.462;11.000;2024-02-26T01:31:28;8.30;99.90
37289;DHT22;23174;49.462;11.000;2024-02-26T01:33:28;8.30;99.90
37289;DHT22;23174;49.462;11.000;2024-02-26T01:35:29;8.30;99.90
37289;DHT22;23174;49.462;11.000;2024-02-26T01:37:29;8.30;99.90
37289;DHT22;23174;49.462;11.000;2024-02-26T01:39:30;8.30;99.90
37289;DHT22;23174;49.462;11.000;2024-02-26T01:41:30;8.40;99.90
37289;DHT22;23174;49.462;11.000;2024-02-26T01:43:31;8.50;99.90
37289;DHT22;23174;49.462;11.000;2024-02-26T01:45:32;8.50;99.90
37289;DHT22;23174;49.462;11.000;2024-02-26T01:47:32;8.60;99.90
37289;DHT22;23174;49.462;11.000;2024-02-26T01:49:34;8.50;99.90
37289;DHT22;23174;49.462;11.000;2024-02-26T01:51:35;8.60;99.90
37289;DHT22;23174;49.462;11.000;2024-02-26T01:53:36;8.60;99.90
37289;DHT22;23174;49.462;11.000;2024-02-26T01:55:37;8.60;99.90
37289;DHT22;23174;49.462;11.000;2024-02-26T01:57:37;8.70;99.90
37289;DHT22;23174;49.462;11.000;2024-02-26T01:59:39;8.60;99.90
37289;DHT22;23174;49.462;11.000;2024-02-26T02:01:44;8.60;99.90
37289;DHT22;23174;49.462;11.000;2024-02-26T02:03:48;8.60;99.90
37289;DHT22;23174;49.462;11.000;2024-02-26T02:05:48;8.60;99.90
37289;DHT22;23174;49.462;11.000;2024-02-26T02:07:49;8.50;99.90
37289;DHT22;23174;49.462;11.000;2024-02-26T02:09:50;8.50;99.90
37289;DHT22;23174;49.462;11.000;2024-02-26T02:11:50;8.50;99.90
37289;DHT22;23174;49.462;11.000;2024-02-26T02:13:51;8.50;99.90
37289;DHT22;23174;49.462;11.000;2024-02-26T02:15:52;8.60;99.90
37289;DHT22;23174;49.462;11.000;2024-02-26T02:17:53;8.70;99.90
37289;DHT22;23174;49.462;11.000;2024-02-26T02:19:53;8.80;99.90
37289;DHT22;23174;49.462;11.000;2024-02-26T02:21:54;8.70;99.90
37289;DHT22;23174;49.462;11.000;2024-02-26T02:23:54;8.70;99.90
37289;DHT22;23174;49.462;11.000;2024-02-26T02:25:56;8.70;99.90
37289;DHT22;23174;49.462;11.000;2024-02-26T02:27:57;8.70;99.90
37289;DHT22;23174;49.462;11.000;2024-02-26T02:29:58;8.70;99.90
37289;DHT22;23174;49.462;11.000;2024-02-26T02:31:59;8.70;99.90
37289;DHT22;23174;49.462;11.000;2024-02-26T02:34:01;8.80;99.90
37289;DHT22;23174;49.462;11.000;2024-02-26T02:36:02;8.80;99.90
37289;DHT22;23174;49.462;11.000;2024-02-26T02:38:03;8.80;99.90
37289;DHT22;23174;49.462;11.000;2024-02-26T02:40:03;8.80;99.90
37289;DHT22;23174;49.462;11.000;2024-02-26T02:42:05;8.70;99.90
37289;DHT22;23174;49.462;11.000;2024-02-26T02:44:06;8.60;99.90
37289;DHT22;23174;49.462;11.000;2024-02-26T02:46:06;8.50;99.90
37289;DHT22;23174;49.462;11.000;2024-02-26T02:48:07;8.50;99.90
37289;DHT22;23174;49.462;11.000;2024-02-26T02:50:07;8.50;99.90
37289;DHT22;23174;49.462;11.000;2024-02-26T02:52:08;8.50;99.90
37289;DHT22;23174;49.462;11.000;2024-02-26T02:54:08;8.60;99.90
37289;DHT22;23174;49.462;11.000;2024-02-26T02:56:09;8.60;99.90
37289;DHT22;23174;49.462;11.000;2024-02-26T02:58:09;8.60;99.90
37289;DHT22;23174;49.462;11.000;2024-02-26T03:00:10;8.70;99.90
37289;DHT22;23174;49.462;11.000;2024-02-26T03:02:11;8.70;99.90
37289;DHT22;23174;49.462;11.000;2024-02-26T03:04:12;8.60;99.90
37289;DHT22;23174;49.462;11.000;2024-02-26T03:06:12;8.70;99.90
37289;DHT22;23174;49.462;11.000;2024-02-26T03:08:13;8.70;99.90
37289;DHT22;23174;49.462;11.000;2024-02-26T03:10:13;8.70;99.90
37289;DHT22;23174;49.462;11.000;2024-02-26T03:12:14;8.80;99.90
37289;DHT22;23174;49.462;11.000;2024-02-26T03:14:14;8.80;99.90
37289;DHT22;23174;49.462;11.000;2024-02-26T03:16:16;8.80;99.90
37289;DHT22;23174;49.462;11.000;2024-02-26T03:18:17;8.80;99.90
37289;DHT22;23174;49.462;11.000;2024-02-26T03:20:17;8.90;99.90
37289;DHT22;23174;49.462;11.000;2024-02-26T03:22:19;8.80;99.90
37289;DHT22;23174;49.462;11.000;2024-02-26T03:24:20;8.80;99.90
37289;DHT22;23174;49.462;11.000;2024-02-26T03:26:21;8.80;99.90
37289;DHT22;23174;49.462;11.000;2024-02-26T03:28:21;8.90;99.90
37289;DHT22;23174;49.462;11.000;2024-02-26T03:30:22;9.00;99.90
37289;DHT22;23174;49.462;11.000;2024-02-26T03:32:22;9.00;99.90
37289;DHT22;23174;49.462;11.000;2024-02-26T03:34:23;9.00;99.90
37289;DHT22;23174;49.462;11.000;2024-02-26T03:36:23;9.00;99.90
37289;DHT22;23174;49.462;11.000;2024-02-26T03:38:24;9.00;99.90
37289;DHT22;23174;49.462;11.000;2024-02-26T03:40:24;9.10;99.90
37289;DHT22;23174;49.462;11.000;2024-02-26T03:42:25;9.00;99.90
37289;DHT22;23174;49.462;11.000;2024-02-26T03:44:26;8.90;99.90
37289;DHT22;23174;49.462;11.000;2024-02-26T03:46:26;8.70;99.90
37289;DHT22;23174;49.462;11.000;2024-02-26T03:48:26;8.70;99.90
37289;DHT22;23174;49.462;11.000;2024-02-26T03:50:27;8.70;99.90
37289;DHT22;23174;49.462;11.000;2024-02-26T03:52:27;8.70;99.90
37289;DHT22;23174;49.462;11.000;2024-02-26T03:54:28;8.70;99.90
37289;DHT22;23174;49.462;11.000;2024-02-26T03:56:28;8.70;99.90
37289;DHT22;23174;49.462;11.000;2024-02-26T03:58:29;8.60;99.90
37289;DHT22;23174;49.462;11.000;2024-02-26T04:00:29;8.60;99.90
37289;DHT22;23174;49.462;11.000;2024-02-26T04:02:30;8.60;99.90
37289;DHT22;23174;49.462;11.000;2024-02-26T04:04:34;8.60;99.90
37289;DHT22;23174;49.462;11.000;2024-02-26T04:06:34;8.60;99.90
37289;DHT22;23174;49.462;11.000;2024-02-26T04:08:35;8.60;99.90
37289;DHT22;23174;49.462;11.000;2024-02-26T04:10:35;8.70;99.90
37289;DHT22;23174;49.462;11.000;2024-02-26T04:12:42;8.60;99.90
37289;DHT22;23174;49.462;11.000;2024-02-26T04:14:42;8.50;99.90
37289;DHT22;23174;49.462;11.000;2024-02-26T04:16:43;8.50;99.90
37289;DHT22;23174;49.462;11.000;2024-02-26T04:18:43;8.50;99.90
37289;DHT22;23174;49.462;11.000;2024-02-26T04:20:44;8.60;99.90
37289;DHT22;23174;49.462;11.000;2024-02-26T04:22:44;8.60;99.90
37289;DHT22;23174;49.462;11.000;2024-02-26T04:24:45;8.70;99.90
37289;DHT22;23174;49.462;11.000;2024-02-26T04:26:45;8.70;99.90
37289;DHT22;23174;49.462;11.000;2024-02-26T04:28:46;8.70;99.90
37289;DHT22;23174;49.462;11.000;2024-02-26T04:30:47;8.70;99.90
37289;DHT22;23174;49.462;11.000;2024-02-26T04:32:48;8.80;99.90
37289;DHT22;23174;49.462;11.000;2024-02-26T04:34:48;8.80;99.90
37289;DHT22;23174;49.462;11.000;2024-02-26T04:36:49;8.80;99.90
37289;DHT22;23174;49.462;11.000;2024-02-26T04:38:49;8.90;99.90
37289;DHT22;23174;49.462;11.000;2024-02-26T04:40:50;8.90;99.90
37289;DHT22;23174;49.462;11.000;2024-02-26T04:42:50;8.90;99.90
37289;DHT22;23174;49.462;11.000;2024-02-26T04:44:51;8.90;99.90
37289;DHT22;23174;49.462;11.000;2024-02-26T04:46:51;8.90;99.90
37289;DHT22;23174;49.462;11.000;2024-02-26T04:48:52;8.90;99.90
37289;DHT22;23174;49.462;11.000;2024-02-26T04:50:52;8.90;99.90
37289;DHT22;23174;49.462;11.000;2024-02-26T04:52:53;8.90;99.90
37289;DHT22;23174;49.462;11.000;2024-02-26T04:54:53;8.90;99.90
37289;DHT22;23174;49.462;11.000;2024-02-26T04:56:54;8.90;99.90
37289;DHT22;23174;49.462;11.000;2024-02-26T04:58:55;8.90;99.90
37289;DHT22;23174;49.462;11.000;2024-02-26T05:00:55;8.90;99.90
37289;DHT22;23174;49.462;11.000;2024-02-26T05:02:56;8.90;99.90
37289;DHT22;23174;49.462;11.000;2024-02-26T05:04:57;8.90;99.90
37289;DHT22;23174;49.462;11.000;2024-02-26T05:06:57;8.90;99.90
37289;DHT22;23174;49.462;11.000;2024-02-26T05:08:58;9.00;99.90
37289;DHT22;23174;49.462;11.000;2024-02-26T05:10:59;9.00;99.90
37289;DHT22;23174;49.462;11.000;2024-02-26T05:13:00;9.00;99.90
37289;DHT22;23174;49.462;11.000;2024-02-26T05:15:01;8.90;99.90
37289;DHT22;23174;49.462;11.000;2024-02-26T05:17:02;8.90;99.90
37289;DHT22;23174;49.462;11.000;2024-02-26T05:19:02;8.90;99.90
37289;DHT22;23174;49.462;11.000;2024-02-26T05:21:03;8.90;99.90
37289;DHT22;23174;49.462;11.000;2024-02-26T05:23:04;8.90;99.90
37289;DHT22;23174;49.462;11.000;2024-02-26T05:25:04;8.90;99.90
37289;DHT22;23174;49.462;11.000;2024-02-26T05:27:05;9.00;99.90
37289;DHT22;23174;49.462;11.000;2024-02-26T05:29:05;9.00;99.90
37289;DHT22;23174;49.462;11.000;2024-02-26T05:31:06;9.10;99.90
37289;DHT22;23174;49.462;11.000;2024-02-26T05:33:06;9.00;99.90
37289;DHT22;23174;49.462;11.000;2024-02-26T05:35:07;8.90;99.90
37289;DHT22;23174;49.462;11.000;2024-02-26T05:37:08;8.70;99.90
37289;DHT22;23174;49.462;11.000;2024-02-26T05:39:09;8.70;99.90
37289;DHT22;23174;49.462;11.000;2024-02-26T05:41:12;8.70;99.90
37289;DHT22;23174;49.462;11.000;2024-02-26T05:43:12;8.70;99.90
37289;DHT22;23174;49.462;11.000;2024-02-26T05:45:15;8.60;99.90
37289;DHT22;23174;49.462;11.000;2024-02-26T05:47:17;8.50;99.90
37289;DHT22;23174;49.462;11.000;2024-02-26T05:49:18;8.40;99.90
37289;DHT22;23174;49.462;11.000;2024-02-26T05:51:18;8.40;99.90
37289;DHT22;23174;49.462;11.000;2024-02-26T05:53:19;8.50;99.90
37289;DHT22;23174;49.462;11.000;2024-02-26T05:55:19;8.60;99.90
37289;DHT22;23174;49.462;11.000;2024-02-26T05:57:20;8.50;99.90
37289;DHT22;23174;49.462;11.000;2024-02-26T05:59:20;8.40;99.90
37289;DHT22;23174;49.462;11.000;2024-02-26T06:01:21;8.40;99.90
37289;DHT22;23174;49.462;11.000;2024-02-26T06:03:21;8.40;99.90
37289;DHT22;23174;49.462;11.000;2024-02-26T06:05:22;8.40;99.90
37289;DHT22;23174;49.462;11.000;2024-02-26T06:07:22;8.40;99.90
37289;DHT22;23174;49.462;11.000;2024-02-26T06:09:23;8.30;99.90
37289;DHT22;23174;49.462;11.000;2024-02-26T06:11:23;8.40;99.90
37289;DHT22;23174;49.462;11.000;2024-02-26T06:13:24;8.50;99.90
37289;DHT22;23174;49.462;11.000;2024-02-26T06:15:24;8.60;99.90
37289;DHT22;23174;49.462;11.000;2024-02-26T06:17:25;8.60;99.90
37289;DHT22;23174;49.462;11.000;2024-02-26T06:19:25;8.60;99.90
37289;DHT22;23174;49.462;11.000;2024-02-26T06:21:26;8.60;99.90
37289;DHT22;23174;49.462;11.000;2024-02-26T06:23:26;8.60;99.90
37289;DHT22;23174;49.462;11.000;2024-02-26T06:25:27;8.70;99.90
37289;DHT22;23174;49.462;11.000;2024-02-26T06:27:27;8.80;99.90
37289;DHT22;23174;49.462;11.000;2024-02-26T06:29:28;8.90;99.90
37289;DHT22;23174;49.462;11.000;2024-02-26T06:31:28;8.80;99.90
37289;DHT22;23174;49.462;11.000;2024-02-26T06:33:29;8.90;99.90
37289;DHT22;23174;49.462;11.000;2024-02-26T06:35:30;8.90;99.90
37289;DHT22;23174;49.462;11.000;2024-02-26T06:37:30;9.00;99.90
37289;DHT22;23174;49.462;11.000;2024-02-26T06:39:30;9.00;99.90
37289;DHT22;23174;49.462;11.000;2024-02-26T06:41:31;8.90;99.90
37289;DHT22;23174;49.462;11.000;2024-02-26T06:43:31;8.70;99.90
37289;DHT22;23174;49.462;11.000;2024-02-26T06:45:32;8.70;99.90
37289;DHT22;23174;49.462;11.000;2024-02-26T06:47:33;8.60;99.90
37289;DHT22;23174;49.462;11.000;2024-02-26T06:49:33;8.70;99.90
37289;DHT22;23174;49.462;11.000;2024-02-26T06:51:34;8.70;99.90
37289;DHT22;23174;49.462;11.000;2024-02-26T06:53:34;8.80;99.90
37289;DHT22;23174;49.462;11.000;2024-02-26T06:55:35;8.80;99.90
37289;DHT22;23174;49.462;11.000;2024-02-26T06:57:37;8.70;99.90
37289;DHT22;23174;49.462;11.000;2024-02-26T06:59:38;8.80;99.90
37289;DHT22;23174;49.462;11.000;2024-02-26T07:01:41;8.90;99.90
37289;DHT22;23174;49.462;11.000;2024-02-26T07:03:42;8.90;99.90
37289;DHT22;23174;49.462;11.000;2024-02-26T07:05:42;9.00;99.90
37289;DHT22;23174;49.462;11.000;2024-02-26T07:07:45;9.10;99.90
37289;DHT22;23174;49.462;11.000;2024-02-26T07:09:45;9.10;99.90
37289;DHT22;23174;49.462;11.000;2024-02-26T07:11:46;9.50;99.90
37289;DHT22;23174;49.462;11.000;2024-02-26T07:13:46;9.30;99.90
37289;DHT22;23174;49.462;11.000;2024-02-26T07:15:47;9.40;99.90
37289;DHT22;23174;49.462;11.000;2024-02-26T07:17:47;9.40;99.90
37289;DHT22;23174;49.462;11.000;2024-02-26T07:19:49;9.40;99.90
37289;DHT22;23174;49.462;11.000;2024-02-26T07:21:50;9.60;99.90
37289;DHT22;23174;49.462;11.000;2024-02-26T07:23:50;9.60;99.90
37289;DHT22;23174;49.462;11.000;2024-02-26T07:25:50;9.60;99.90
37289;DHT22;23174;49.462;11.000;2024-02-26T07:27:53;9.60;99.90
37289;DHT22;23174;49.462;11.000;2024-02-26T07:29:53;9.60;99.90
37289;DHT22;23174;49.462;11.000;2024-02-26T07:31:54;9.50;99.90
37289;DHT22;23174;49.462;11.000;2024-02-26T07:33:54;9.50;99.90
37289;DHT22;23174;49.462;11.000;2024-02-26T07:35:54;9.60;99.90
37289;DHT22;23174;49.462;11.000;2024-02-26T07:37:55;9.60;99.90
37289;DHT22;23174;49.462;11.000;2024-02-26T07:39:55;9.60;99.90
37289;DHT22;23174;49.462;11.000;2024-02-26T07:41:56;9.70;99.90
37289;DHT22;23174;49.462;11.000;2024-02-26T07:43:56;9.80;99.90
37289;DHT22;23174;49.462;11.000;2024-02-26T07:45:57;9.80;99.90
37289;DHT22;23174;49.462;11.000;2024-02-26T07:47:58;9.80;99.90
37289;DHT22;23174;49.462;11.000;2024-02-26T07:49:58;9.90;99.90
37289;DHT22;23174;49.462;11.000;2024-02-26T07:51:59;9.90;99.90
37289;DHT22;23174;49.462;11.000;2024-02-26T07:53:59;10.00;99.90
37289;DHT22;23174;49.462;11.000;2024-02-26T07:56:00;10.10;99.90
37289;DHT22;23174;49.462;11.000;2024-02-26T07:58:00;10.20;99.90
37289;DHT22;23174;49.462;11.000;2024-02-26T08:00:02;10.20;99.90
37289;DHT22;23174;49.462;11.000;2024-02-26T08:02:03;10.30;99.90
37289;DHT22;23174;49.462;11.000;2024-02-26T08:04:03;10.40;99.90
37289;DHT22;23174;49.462;11.000;2024-02-26T08:06:04;10.40;99.90
37289;DHT22;23174;49.462;11.000;2024-02-26T08:08:05;10.40;99.90
37289;DHT22;23174;49.462;11.000;2024-02-26T08:10:06;10.40;99.90
37289;DHT22;23174;49.462;11.000;2024-02-26T08:12:07;10.60;99.90
37289;DHT22;23174;49.462;11.000;2024-02-26T08:14:08;10.50;99.90
37289;DHT22;23174;49.462;11.000;2024-02-26T08:16:08;10.40;99.90
37289;DHT22;23174;49.462;11.000;2024-02-26T08:18:09;10.40;99.90
37289;DHT22;23174;49.462;11.000;2024-02-26T08:20:10;10.50;99.90
37289;DHT22;23174;49.462;11.000;2024-02-26T08:22:10;10.40;99.90
37289;DHT22;23174;49.462;11.000;2024-02-26T08:24:17;10.50;99.90
37289;DHT22;23174;49.462;11.000;2024-02-26T08:26:17;10.50;99.90
37289;DHT22;23174;49.462;11.000;2024-02-26T08:28:20;10.50;99.90
37289;DHT22;23174;49.462;11.000;2024-02-26T08:30:21;10.60;99.90
37289;DHT22;23174;49.462;11.000;2024-02-26T08:32:21;10.50;99.90
37289;DHT22;23174;49.462;11.000;2024-02-26T08:34:22;10.50;99.90
37289;DHT22;23174;49.462;11.000;2024-02-26T08:36:22;10.50;99.90
37289;DHT22;23174;49.462;11.000;2024-02-26T08:38:23;10.50;99.90
37289;DHT22;23174;49.462;11.000;2024-02-26T08:40:23;10.50;99.90
37289;DHT22;23174;49.462;11.000;2024-02-26T08:42:23;10.50;99.90
37289;DHT22;23174;49.462;11.000;2024-02-26T08:44:24;10.50;99.90
37289;DHT22;23174;49.462;11.000;2024-02-26T08:46:26;10.50;99.90
37289;DHT22;23174;49.462;11.000;2024-02-26T08:48:27;10.50;99.90
37289;DHT22;23174;49.462;11.000;2024-02-26T08:50:27;10.70;99.90
37289;DHT22;23174;49.462;11.000;2024-02-26T08:52:28;10.60;99.90
37289;DHT22;23174;49.462;11.000;2024-02-26T08:54:28;10.70;99.90
37289;DHT22;23174;49.462;11.000;2024-02-26T08:56:28;10.70;99.90
37289;DHT22;23174;49.462;11.000;2024-02-26T08:58:29;10.70;99.90
37289;DHT22;23174;49.462;11.000;2024-02-26T09:00:29;10.80;99.90
37289;DHT22;23174;49.462;11.000;2024-02-26T09:02:31;10.70;99.90
37289;DHT22;23174;49.462;11.000;2024-02-26T09:04:31;10.80;99.90
37289;DHT22;23174;49.462;11.000;2024-02-26T09:06:32;10.80;99.90
37289;DHT22;23174;49.462;11.000;2024-02-26T09:08:33;10.80;99.90
37289;DHT22;23174;49.462;11.000;2024-02-26T09:10:33;10.90;99.90
37289;DHT22;23174;49.462;11.000;2024-02-26T09:12:34;10.90;99.90
37289;DHT22;23174;49.462;11.000;2024-02-26T09:14:34;10.00;99.90
37289;DHT22;23174;49.462;11.000;2024-02-26T09:16:35;9.30;99.90
37289;DHT22;23174;49.462;11.000;2024-02-26T09:18:35;9.20;99.90
37289;DHT22;23174;49.462;11.000;2024-02-26T09:20:36;9.30;99.90
37289;DHT22;23174;49.462;11.000;2024-02-26T09:22:36;9.90;99.90
37289;DHT22;23174;49.462;11.000;2024-02-26T09:24:38;10.50;99.90
37289;DHT22;23174;49.462;11.000;2024-02-26T09:26:38;10.90;99.90
37289;DHT22;23174;49.462;11.000;2024-02-26T09:28:39;11.00;99.90
37289;DHT22;23174;49.462;11.000;2024-02-26T09:30:39;11.10;99.90
37289;DHT22;23174;49.462;11.000;2024-02-26T09:32:40;11.30;99.90
37289;DHT22;23174;49.462;11.000;2024-02-26T09:34:41;11.30;99.90
37289;DHT22;23174;49.462;11.000;2024-02-26T09:36:41;11.40;99.90
37289;DHT22;23174;49.462;11.000;2024-02-26T09:38:42;11.40;99.90
37289;DHT22;23174;49.462;11.000;2024-02-26T09:40:42;11.40;99.90
37289;DHT22;23174;49.462;11.000;2024-02-26T09:42:44;11.50;99.90
37289;DHT22;23174;49.462;11.000;2024-02-26T09:44:45;11.50;99.90
37289;DHT22;23174;49.462;11.000;2024-02-26T09:46:48;11.50;99.90
37289;DHT22;23174;49.462;11.000;2024-02-26T09:48:50;11.50;99.90
37289;DHT22;23174;49.462;11.000;2024-02-26T09:50:51;11.50;99.90
37289;DHT22;23174;49.462;11.000;2024-02-26T09:52:52;11.60;99.90
37289;DHT22;23174;49.462;11.000;2024-02-26T09:54:54;11.60;99.90
37289;DHT22;23174;49.462;11.000;2024-02-26T09:56:59;11.50;99.90
37289;DHT22;23174;49.462;11.000;2024-02-26T09:59:01;11.50;99.90
37289;DHT22;23174;49.462;11.000;2024-02-26T10:01:13;11.60;99.90
37289;DHT22;23174;49.462;11.000;2024-02-26T10:03:16;11.60;99.90
37289;DHT22;23174;49.462;11.000;2024-02-26T10:05:18;11.60;99.90
37289;DHT22;23174;49.462;11.000;2024-02-26T10:07:20;11.70;99.90
37289;DHT22;23174;49.462;11.000;2024-02-26T10:09:21;11.70;99.90
37289;DHT22;23174;49.462;11.000;2024-02-26T10:11:22;11.70;99.90
37289;DHT22;23174;49.462;11.000;2024-02-26T10:13:23;11.80;99.90
37289;DHT22;23174;49.462;11.000;2024-02-26T10:15:24;11.90;99.90
37289;DHT22;23174;49.462;11.000;2024-02-26T10:17:25;11.90;99.90
37289;DHT22;23174;49.462;11.000;2024-02-26T10:19:26;11.80;99.90
37289;DHT22;23174;49.462;11.000;2024-02-26T10:21:27;11.80;99.90
37289;DHT22;23174;49.462;11.000;2024-02-26T10:23:28;11.90;99.90
37289;DHT22;23174;49.462;11.000;2024-02-26T10:25:29;11.80;99.90
37289;DHT22;23174;49.462;11.000;2024-02-26T10:27:31;12.00;99.90
37289;DHT22;23174;49.462;11.000;2024-02-26T10:29:32;11.90;99.90
37289;DHT22;23174;49.462;11.000;2024-02-26T10:31:33;12.00;99.90
37289;DHT22;23174;49.462;11.000;2024-02-26T10:33:34;12.00;99.90
37289;DHT22;23174;49.462;11.000;2024-02-26T10:35:36;12.00;99.90
37289;DHT22;23174;49.462;11.000;2024-02-26T10:37:41;12.20;99.90
37289;DHT22;23174;49.462;11.000;2024-02-26T10:39:46;12.10;99.90
37289;DHT22;23174;49.462;11.000;2024-02-26T10:41:47;12.20;99.90
37289;DHT22;23174;49.462;11.000;2024-02-26T10:43:47;12.10;99.90
37289;DHT22;23174;49.462;11.000;2024-02-26T10:45:48;12.10;99.90
37289;DHT22;23174;49.462;11.000;2024-02-26T10:47:48;12.20;99.90
37289;DHT22;23174;49.462;11.000;2024-02-26T10:49:50;12.20;99.90
37289;DHT22;23174;49.462;11.000;2024-02-26T10:51:56;12.20;99.90
37289;DHT22;23174;49.462;11.000;2024-02-26T10:53:59;12.10;99.90
37289;DHT22;23174;49.462;11.000;2024-02-26T10:56:03;12.20;99.90
37289;DHT22;23174;49.462;11.000;2024-02-26T10:58:07;12.20;99.90
37289;DHT22;23174;49.462;11.000;2024-02-26T11:00:10;12.20;99.90
37289;DHT22;23174;49.462;11.000;2024-02-26T11:02:14;12.20;99.90
37289;DHT22;23174;49.462;11.000;2024-02-26T11:04:15;12.30;99.90
37289;DHT22;23174;49.462;11.000;2024-02-26T11:06:17;12.30;99.90
37289;DHT22;23174;49.462;11.000;2024-02-26T11:08:19;12.30;99.90
37289;DHT22;23174;49.462;11.000;2024-02-26T11:10:20;12.40;99.90
37289;DHT22;23174;49.462;11.000;2024-02-26T11:12:22;12.40;99.90
37289;DHT22;23174;49.462;11.000;2024-02-26T11:14:24;12.50;99.90
37289;DHT22;23174;49.462;11.000;2024-02-26T11:16:27;12.50;99.90
37289;DHT22;23174;49.462;11.000;2024-02-26T11:18:29;12.50;99.90
37289;DHT22;23174;49.462;11.000;2024-02-26T11:20:32;12.60;99.90
37289;DHT22;23174;49.462;11.000;2024-02-26T11:22:33;12.60;99.90
37289;DHT22;23174;49.462;11.000;2024-02-26T11:24:34;12.70;99.90
37289;DHT22;23174;49.462;11.000;2024-02-26T11:26:57;12.70;99.90
37289;DHT22;23174;49.462;11.000;2024-02-26T11:29:02;12.70;99.90
37289;DHT22;23174;49.462;11.000;2024-02-26T11:31:03;12.70;99.90
37289;DHT22;23174;49.462;11.000;2024-02-26T11:33:08;12.70;99.90
37289;DHT22;23174;49.462;11.000;2024-02-26T11:35:09;12.70;99.90
37289;DHT22;23174;49.462;11.000;2024-02-26T11:37:16;12.60;99.90
37289;DHT22;23174;49.462;11.000;2024-02-26T11:39:17;12.70;99.90
37289;DHT22;23174;49.462;11.000;2024-02-26T11:41:18;12.70;99.90
37289;DHT22;23174;49.462;11.000;2024-02-26T11:47:56;12.90;99.90
37289;DHT22;23174;49.462;11.000;2024-02-26T11:49:56;12.90;99.90
37289;DHT22;23174;49.462;11.000;2024-02-26T11:51:58;12.90;99.90
37289;DHT22;23174;49.462;11.000;2024-02-26T11:54:03;12.90;99.90
37289;DHT22;23174;49.462;11.000;2024-02-26T11:58:31;13.10;99.90
37289;DHT22;23174;49.462;11.000;2024-02-26T12:00:32;13.10;99.90
37289;DHT22;23174;49.462;11.000;2024-02-26T12:02:51;13.20;99.90
37289;DHT22;23174;49.462;11.000;2024-02-26T12:04:58;13.30;99.90
37289;DHT22;23174;49.462;11.000;2024-02-26T12:07:02;13.30;99.80
37289;DHT22;23174;49.462;11.000;2024-02-26T12:09:05;13.30;99.50
37289;DHT22;23174;49.462;11.000;2024-02-26T12:11:14;13.40;99.40
37289;DHT22;23174;49.462;11.000;2024-02-26T12:13:15;13.40;98.90
37289;DHT22;23174;49.462;11.000;2024-02-26T12:15:16;13.40;99.10
37289;DHT22;23174;49.462;11.000;2024-02-26T12:17:25;13.40;99.30
37289;DHT22;23174;49.462;11.000;2024-02-26T12:19:27;13.50;98.70
37289;DHT22;23174;49.462;11.000;2024-02-26T12:21:28;13.40;98.80
37289;DHT22;23174;49.462;11.000;2024-02-26T12:23:28;13.50;99.60
37289;DHT22;23174;49.462;11.000;2024-02-26T12:25:30;13.60;99.20
37289;DHT22;23174;49.462;11.000;2024-02-26T12:27:31;13.70;99.10
37289;DHT22;23174;49.462;11.000;2024-02-26T12:29:32;13.70;98.80
37289;DHT22;23174;49.462;11.000;2024-02-26T12:31:33;13.70;99.00
37289;DHT22;23174;49.462;11.000;2024-02-26T12:33:34;13.70;99.20
37289;DHT22;23174;49.462;11.000;2024-02-26T12:35:35;13.70;99.40
37289;DHT22;23174;49.462;11.000;2024-02-26T12:37:36;13.70;99.80
37289;DHT22;23174;49.462;11.000;2024-02-26T12:39:38;13.80;99.90
37289;DHT22;23174;49.462;11.000;2024-02-26T12:41:39;13.80;99.90
37289;DHT22;23174;49.462;11.000;2024-02-26T12:43:41;13.80;99.90
37289;DHT22;23174;49.462;11.000;2024-02-26T12:45:42;13.90;99.90
37289;DHT22;23174;49.462;11.000;2024-02-26T12:47:46;13.90;99.90